createdAt,value
2022-12-03T00:00:22.317Z,99405.56
2022-12-03T00:03:30.323Z,99404.92
2022-12-03T00:06:06.233Z,99401.23
2022-12-03T00:08:54.161Z,99405.14
2022-12-03T00:11:29.372Z,99409.55
2022-12-03T00:14:17.313Z,99411.73
2022-12-03T00:16:52.359Z,99413.89
2022-12-03T00:19:40.196Z,99409.11
2022-12-03T00:22:15.287Z,99409.46
2022-12-03T00:25:03.137Z,99405.55
2022-12-03T00:27:38.292Z,99406.34
2022-12-03T00:30:33.140Z,99406.73
2022-12-03T00:33:28.153Z,99404.71
2022-12-03T00:36:17.336Z,99402.33
2022-12-03T00:39:00.134Z,99407.73
2022-12-03T00:41:55.155Z,99399.41
2022-12-03T00:44:50.211Z,99406.89
2022-12-03T00:47:38.141Z,99408.82
2022-12-03T00:50:20.129Z,99404.54
2022-12-03T00:53:15.314Z,99403.23
2022-12-03T00:56:03.147Z,99402.25
2022-12-03T00:58:39.251Z,99399.27
2022-12-03T01:01:27.205Z,99405.13
2022-12-03T01:04:02.274Z,99404.80
2022-12-03T01:06:50.132Z,99408.03
2022-12-03T01:09:25.268Z,99406.51
2022-12-03T01:12:13.142Z,99407.11
2022-12-03T01:14:48.270Z,99408.30
2022-12-03T01:17:36.118Z,99406.31
2022-12-03T01:20:42.708Z,99406.13
2022-12-03T01:24:07.804Z,99405.55
2022-12-03T01:27:03.142Z,99405.80
2022-12-03T01:29:38.277Z,99404.20
2022-12-03T01:32:26.145Z,99400.52
2022-12-03T01:35:14.133Z,99398.13
2022-12-03T01:37:48.542Z,99392.79
2022-12-03T01:40:37.328Z,99392.78
2022-12-03T01:43:12.569Z,99391.16
2022-12-03T01:46:01.332Z,99389.54
2022-12-03T01:48:45.128Z,99386.30
2022-12-03T01:51:26.251Z,99386.42
2022-12-03T01:54:08.123Z,99384.21
2022-12-03T01:56:49.297Z,99390.27
2022-12-03T01:59:35.133Z,99391.79
2022-12-03T02:02:37.132Z,99385.08
2022-12-03T02:05:22.307Z,99386.67
2022-12-03T02:08:12.355Z,99382.45
2022-12-03T02:10:55.109Z,99378.39
2022-12-03T02:13:36.265Z,99380.70
2022-12-03T02:16:17.164Z,99376.20
2022-12-03T02:18:59.289Z,99381.30
2022-12-03T02:22:05.128Z,99380.53
2022-12-03T02:25:17.472Z,99381.33
2022-12-03T02:28:01.115Z,99375.91
2022-12-03T02:30:56.131Z,99370.71
2022-12-03T02:33:44.111Z,99368.27
2022-12-03T02:36:25.246Z,99363.45
2022-12-03T02:39:06.127Z,99359.05
2022-12-03T02:42:05.877Z,99363.45
2022-12-03T02:44:47.129Z,99368.77
2022-12-03T02:47:36.114Z,99372.56
2022-12-03T02:50:19.133Z,99378.95
2022-12-03T02:53:01.263Z,99388.72
2022-12-03T02:55:42.104Z,99390.59
2022-12-03T02:58:24.246Z,99388.76
2022-12-03T03:01:06.370Z,99394.27
2022-12-03T03:03:49.267Z,99391.13
2022-12-03T03:06:32.306Z,99391.27
2022-12-03T03:09:21.101Z,99393.86
2022-12-03T03:12:03.111Z,99395.02
2022-12-03T03:14:52.595Z,99389.98
2022-12-03T03:17:28.612Z,99390.02
2022-12-03T03:20:20.100Z,99390.19
2022-12-03T03:23:01.116Z,99388.92
2022-12-03T03:25:42.266Z,99390.95
2022-12-03T03:28:23.109Z,99390.02
2022-12-03T03:31:05.261Z,99381.82
2022-12-03T03:33:54.106Z,99376.05
2022-12-03T03:36:37.108Z,99377.34
2022-12-03T03:39:25.100Z,99375.04
2022-12-03T03:42:07.083Z,99374.91
2022-12-03T03:45:02.107Z,99372.39
2022-12-03T03:47:50.092Z,99371.54
2022-12-03T03:50:25.329Z,99373.23
2022-12-03T03:53:13.292Z,99377.69
2022-12-03T03:55:48.242Z,99376.61
2022-12-03T03:58:36.107Z,99378.12
2022-12-03T04:01:11.301Z,99377.36
2022-12-03T04:04:00.241Z,99378.19
2022-12-03T04:06:42.094Z,99377.80
2022-12-03T04:09:37.307Z,99371.25
2022-12-03T04:12:45.092Z,99368.38
2022-12-03T04:15:19.252Z,99367.88
2022-12-03T04:18:25.094Z,99369.88
2022-12-03T04:21:31.222Z,99368.67
2022-12-03T04:24:10.187Z,99371.89
2022-12-03T04:27:16.090Z,99377.58
2022-12-03T04:29:50.531Z,99381.69
2022-12-03T04:32:56.088Z,99378.27
2022-12-03T04:35:49.166Z,99375.98
2022-12-03T04:38:30.210Z,99374.98
2022-12-03T04:41:11.100Z,99377.80
2022-12-03T04:44:17.096Z,99376.98
2022-12-03T04:46:51.536Z,99380.14
2022-12-03T04:49:40.091Z,99379.77
2022-12-03T04:52:16.641Z,99383.20
2022-12-03T04:55:04.103Z,99389.81
2022-12-03T04:57:38.574Z,99390.81
2022-12-03T05:00:27.096Z,99385.51
2022-12-03T05:03:08.138Z,99382.22
2022-12-03T05:05:49.328Z,99385.11
2022-12-03T05:08:32.303Z,99384.07
2022-12-03T05:11:14.242Z,99387.70
2022-12-03T05:13:57.101Z,99386.58
2022-12-03T05:16:38.312Z,99388.48
2022-12-03T05:19:19.263Z,99395.21
2022-12-03T05:22:00.287Z,99400.31
2022-12-03T05:24:42.266Z,99399.74
2022-12-03T05:27:31.083Z,99388.54
2022-12-03T05:30:06.285Z,99383.02
2022-12-03T05:32:54.297Z,99381.25
2022-12-03T05:35:36.081Z,99383.31
2022-12-03T05:38:17.217Z,99386.49
2022-12-03T05:41:05.089Z,99388.25
2022-12-03T05:43:40.208Z,99384.81
2022-12-03T05:46:28.132Z,99381.72
2022-12-03T05:49:10.079Z,99381.00
2022-12-03T05:51:58.851Z,99378.94
2022-12-03T05:54:34.265Z,99376.57
2022-12-03T05:57:22.268Z,99377.10
2022-12-03T06:00:04.075Z,99375.00
2022-12-03T06:02:59.253Z,99368.55
2022-12-03T06:05:47.082Z,99368.82
2022-12-03T06:08:22.242Z,99367.60
2022-12-03T06:11:10.062Z,99375.69
2022-12-03T06:13:45.420Z,99378.27
2022-12-03T06:16:34.359Z,99385.13
2022-12-03T06:19:23.272Z,99385.33
2022-12-03T06:21:58.511Z,99384.36
2022-12-03T06:24:47.528Z,99382.98
2022-12-03T06:27:30.106Z,99384.07
2022-12-03T06:30:22.061Z,99385.03
2022-12-03T06:33:03.110Z,99386.19
2022-12-03T06:35:45.211Z,99386.32
2022-12-03T06:38:26.076Z,99383.66
2022-12-03T06:41:14.073Z,99388.25
2022-12-03T06:44:09.252Z,99388.55
2022-12-03T06:46:57.126Z,99394.18
2022-12-03T06:49:33.874Z,99392.95
2022-12-03T06:52:22.076Z,99393.20
2022-12-03T06:54:58.068Z,99389.88
2022-12-03T06:57:46.077Z,99398.71
2022-12-03T07:00:21.222Z,99402.69
2022-12-03T07:03:09.291Z,99400.02
2022-12-03T07:05:44.204Z,99402.67
2022-12-03T07:08:32.043Z,99403.38
2022-12-03T07:11:26.138Z,99392.63
2022-12-03T07:14:16.048Z,99391.84
2022-12-03T07:16:51.472Z,99392.43
2022-12-03T07:19:40.061Z,99393.33
2022-12-03T07:22:15.174Z,99386.38
2022-12-03T07:25:03.070Z,99384.16
2022-12-03T07:27:38.196Z,99389.09
2022-12-03T07:30:26.114Z,99394.20
2022-12-03T07:33:08.061Z,99396.64
2022-12-03T07:35:49.501Z,99394.79
2022-12-03T07:38:37.059Z,99398.69
2022-12-03T07:41:11.521Z,99401.14
2022-12-03T07:43:59.059Z,99404.71
2022-12-03T07:46:40.076Z,99408.89
2022-12-03T07:49:28.045Z,99416.02
2022-12-03T07:52:09.060Z,99422.75
2022-12-03T07:54:57.061Z,99414.56
2022-12-03T07:57:52.047Z,99412.30
2022-12-03T08:00:40.129Z,99412.64
2022-12-03T08:03:15.197Z,99415.66
2022-12-03T08:06:03.052Z,99414.33
2022-12-03T08:08:38.412Z,99415.64
2022-12-03T08:11:26.059Z,99414.66
2022-12-03T08:14:08.032Z,99409.39
2022-12-03T08:16:56.104Z,99403.95
2022-12-03T08:19:38.040Z,99406.85
2022-12-03T08:22:26.052Z,99407.05
2022-12-03T08:25:01.250Z,99404.00
2022-12-03T08:27:49.031Z,99406.14
2022-12-03T08:30:24.212Z,99406.60
2022-12-03T08:33:40.147Z,99404.15
2022-12-03T08:36:26.954Z,99409.74
2022-12-03T08:39:35.037Z,99412.10
2022-12-03T08:42:48.055Z,99410.88
2022-12-03T08:45:43.434Z,99406.20
2022-12-03T08:48:44.039Z,99408.09
2022-12-03T08:51:37.104Z,99412.30
2022-12-03T08:54:19.224Z,99419.99
2022-12-03T08:57:07.127Z,99421.38
2022-12-03T08:59:45.457Z,99417.14
2022-12-03T09:02:43.134Z,99414.79
2022-12-03T09:05:45.041Z,99412.17
2022-12-03T09:08:33.043Z,99406.32
2022-12-03T09:11:08.167Z,99404.63
2022-12-03T09:13:56.019Z,99402.85
2022-12-03T09:16:30.289Z,99404.05
2022-12-03T09:19:18.033Z,99409.98
2022-12-03T09:21:52.175Z,99417.02
2022-12-03T09:24:40.036Z,99413.81
2022-12-03T09:27:15.208Z,99413.59
2022-12-03T09:30:03.043Z,99411.58
2022-12-03T09:32:38.218Z,99412.09
2022-12-03T09:35:26.050Z,99410.52
2022-12-03T09:38:01.354Z,99413.61
2022-12-03T09:40:49.188Z,99416.10
2022-12-03T09:43:33.498Z,99417.67
2022-12-03T09:46:33.102Z,99417.53
2022-12-03T09:49:15.328Z,99415.02
2022-12-03T09:52:05.238Z,99415.91
2022-12-03T09:54:54.340Z,99409.68
2022-12-03T09:57:36.038Z,99408.55
2022-12-03T10:00:32.085Z,99412.89
2022-12-03T10:03:07.813Z,99407.52
2022-12-03T10:05:56.041Z,99408.46
2022-12-03T10:08:37.040Z,99406.80
2022-12-03T10:11:18.169Z,99409.08
2022-12-03T10:14:02.036Z,99409.73
2022-12-03T10:16:44.352Z,99409.11
2022-12-03T10:19:35.044Z,99411.68
2022-12-03T10:22:16.215Z,99408.33
2022-12-03T10:25:20.023Z,99408.39
2022-12-03T10:28:09.237Z,99405.35
2022-12-03T10:31:02.078Z,99405.38
2022-12-03T10:33:58.988Z,99402.61
2022-12-03T10:36:47.016Z,99397.08
2022-12-03T10:39:23.187Z,99389.64
2022-12-03T10:42:23.038Z,99388.25
2022-12-03T10:45:19.411Z,99388.16
2022-12-03T10:48:22.018Z,99390.64
2022-12-03T10:51:26.153Z,99394.77
2022-12-03T10:54:26.030Z,99390.31
2022-12-03T10:57:01.137Z,99388.64
2022-12-03T10:59:49.194Z,99386.77
2022-12-03T11:02:30.271Z,99390.52
2022-12-03T11:05:33.015Z,99392.65
2022-12-03T11:08:08.223Z,99390.83
2022-12-03T11:11:20.191Z,99390.45
2022-12-03T11:14:04.472Z,99389.84
2022-12-03T11:16:52.174Z,99389.59
2022-12-03T11:19:48.300Z,99389.75
2022-12-03T11:22:55.281Z,99383.98
2022-12-03T11:25:33.215Z,99377.30
2022-12-03T11:28:21.010Z,99374.54
2022-12-03T11:30:56.967Z,99377.05
2022-12-03T11:33:48.008Z,99380.84
2022-12-03T11:36:41.993Z,99380.04
2022-12-03T11:39:57.222Z,99376.34
2022-12-03T11:42:36.171Z,99373.11
2022-12-03T11:45:40.022Z,99367.70
2022-12-03T11:48:22.686Z,99360.87
2022-12-03T11:51:11.220Z,99356.88
2022-12-03T11:53:47.303Z,99356.39
2022-12-03T11:56:36.993Z,99357.44
2022-12-03T11:59:19.410Z,99358.44
2022-12-03T12:02:06.999Z,99363.66
2022-12-03T12:04:46.826Z,99360.80
2022-12-03T12:07:44.489Z,99363.14
2022-12-03T12:10:19.163Z,99362.42
2022-12-03T12:13:07.119Z,99365.39
2022-12-03T12:15:50.220Z,99363.67
2022-12-03T12:18:45.243Z,99361.73
2022-12-03T12:21:50.153Z,99357.88
2022-12-03T12:24:45.098Z,99353.06
2022-12-03T12:27:24.172Z,99348.83
2022-12-03T12:30:17.013Z,99346.60
2022-12-03T12:33:27.142Z,99344.75
2022-12-03T12:36:16.010Z,99343.02
2022-12-03T12:38:51.225Z,99347.12
2022-12-03T12:41:39.113Z,99350.02
2022-12-03T12:44:23.982Z,99343.55
2022-12-03T12:47:07.023Z,99344.54
2022-12-03T12:49:55.500Z,99342.08
2022-12-03T12:52:40.094Z,99341.04
2022-12-03T12:55:21.553Z,99345.98
2022-12-03T12:58:07.170Z,99351.45
2022-12-03T13:00:49.177Z,99348.58
2022-12-03T13:03:34.022Z,99348.67
2022-12-03T13:06:21.660Z,99352.99
2022-12-03T13:09:27.803Z,99353.17
2022-12-03T13:12:08.346Z,99356.56
2022-12-03T13:15:00.865Z,99362.04
2022-12-03T13:17:37.185Z,99362.84
2022-12-03T13:25:00.742Z,99362.05
2022-12-03T13:28:43.855Z,99358.09
2022-12-03T13:32:07.979Z,99361.98
2022-12-03T13:35:37.008Z,99357.88
2022-12-03T13:38:49.267Z,99358.77
2022-12-03T13:42:21.269Z,99361.48
2022-12-03T13:45:29.920Z,99362.19
2022-12-03T13:48:44.174Z,99360.36
2022-12-03T13:51:28.444Z,99360.55
2022-12-03T13:54:52.302Z,99361.52
2022-12-03T13:58:03.763Z,99364.04
2022-12-03T14:01:03.352Z,99362.73
2022-12-03T14:06:56.047Z,99370.02
2022-12-03T14:09:37.003Z,99370.67
2022-12-03T14:12:34.040Z,99373.30
2022-12-03T14:15:12.711Z,99370.98
2022-12-03T14:18:02.752Z,99371.30
2022-12-03T14:20:37.437Z,99366.68
2022-12-03T14:23:26.163Z,99362.27
2022-12-03T14:26:01.599Z,99367.79
2022-12-03T14:28:50.155Z,99369.80
2022-12-03T14:31:25.849Z,99374.54
2022-12-03T14:34:13.985Z,99375.30
2022-12-03T14:36:55.534Z,99372.36
2022-12-03T14:39:44.187Z,99369.46
2022-12-03T14:42:26.186Z,99371.10
2022-12-03T14:45:16.968Z,99377.09
2022-12-03T14:47:51.612Z,99381.34
2022-12-03T14:50:40.162Z,99387.44
2022-12-03T14:53:27.067Z,99388.08
2022-12-03T14:56:08.307Z,99384.56
2022-12-03T14:58:50.062Z,99385.90
2022-12-03T15:01:33.913Z,99382.73
2022-12-03T15:04:16.049Z,99381.74
2022-12-03T15:06:57.135Z,99384.09
2022-12-03T15:09:37.970Z,99385.00
2022-12-03T15:12:25.974Z,99379.15
2022-12-03T15:15:00.698Z,99376.48
2022-12-03T15:17:51.981Z,99375.97
2022-12-03T15:20:26.418Z,99376.45
2022-12-03T15:23:14.714Z,99380.39
2022-12-03T15:25:57.019Z,99378.23
2022-12-03T15:28:38.099Z,99376.14
2022-12-03T15:31:21.998Z,99371.55
2022-12-03T15:34:22.069Z,99372.59
2022-12-03T15:37:03.956Z,99384.39
2022-12-03T15:39:48.382Z,99389.96
2022-12-03T15:42:31.962Z,99397.42
2022-12-03T15:45:15.713Z,99399.70
2022-12-03T15:47:59.466Z,99400.35
2022-12-03T15:50:53.945Z,99399.05
2022-12-03T15:53:42.982Z,99398.64
2022-12-03T15:56:24.996Z,99402.04
2022-12-03T15:59:20.414Z,99405.45
2022-12-03T16:02:08.073Z,99407.30
2022-12-03T16:04:46.032Z,99405.52
2022-12-03T16:07:35.141Z,99404.17
2022-12-03T16:10:11.196Z,99401.66
2022-12-03T16:12:58.956Z,99400.58
2022-12-03T16:15:35.810Z,99393.95
2022-12-03T16:18:26.617Z,99398.44
2022-12-03T16:21:02.092Z,99395.88
2022-12-03T16:23:49.966Z,99392.85
2022-12-03T16:26:30.016Z,99399.89
2022-12-03T16:29:17.958Z,99405.33
2022-12-03T16:31:59.197Z,99411.22
2022-12-03T16:34:39.943Z,99411.36
2022-12-03T16:37:27.969Z,99405.41
2022-12-03T16:40:03.040Z,99401.89
2022-12-03T16:42:50.954Z,99402.67
2022-12-03T16:45:51.101Z,99403.36
2022-12-03T16:48:32.158Z,99398.21
2022-12-03T16:51:12.960Z,99392.85
2022-12-03T16:53:55.169Z,99386.50
2022-12-03T16:56:37.959Z,99387.71
2022-12-03T16:59:19.075Z,99378.70
2022-12-03T17:01:59.977Z,99371.41
2022-12-03T17:04:41.134Z,99375.26
2022-12-03T17:07:21.938Z,99376.63
2022-12-03T17:10:03.099Z,99373.35
2022-12-03T17:13:08.340Z,99374.17
2022-12-03T17:15:55.713Z,99379.40
2022-12-03T17:18:31.377Z,99375.33
2022-12-03T17:21:20.957Z,99378.29
2022-12-03T17:23:55.452Z,99377.17
2022-12-03T17:26:42.934Z,99380.04
2022-12-03T17:29:37.938Z,99378.53
2022-12-03T17:32:32.940Z,99378.52
2022-12-03T17:35:27.945Z,99376.53
2022-12-03T17:38:15.943Z,99381.06
2022-12-03T17:40:52.414Z,99379.31
2022-12-03T17:43:40.076Z,99377.94
2022-12-03T17:46:16.123Z,99378.52
2022-12-03T17:49:03.955Z,99375.73
2022-12-03T17:51:39.535Z,99370.02
2022-12-03T17:54:43.224Z,99368.28
2022-12-03T17:57:22.083Z,99369.48
2022-12-03T18:00:09.942Z,99369.66
2022-12-03T18:02:46.085Z,99370.45
2022-12-03T18:05:33.889Z,99372.14
2022-12-03T18:08:11.060Z,99369.16
2022-12-03T18:10:58.966Z,99368.23
2022-12-03T18:13:40.955Z,99363.52
2022-12-03T18:16:35.965Z,99362.76
2022-12-03T18:19:23.934Z,99362.92
2022-12-03T18:21:59.080Z,99365.16
2022-12-03T18:24:51.576Z,99365.11
2022-12-03T18:27:33.163Z,99364.44
2022-12-03T18:30:14.948Z,99359.39
2022-12-03T18:33:09.922Z,99354.48
2022-12-03T18:36:00.952Z,99354.76
2022-12-03T18:38:45.075Z,99348.95
2022-12-03T18:41:41.138Z,99350.91
2022-12-03T18:44:29.510Z,99357.04
2022-12-03T18:47:18.027Z,99354.08
2022-12-03T18:50:14.022Z,99355.20
2022-12-03T18:52:57.336Z,99352.80
2022-12-03T18:55:41.936Z,99355.77
2022-12-03T18:58:29.927Z,99356.70
2022-12-03T19:01:11.984Z,99353.24
2022-12-03T19:03:54.060Z,99348.05
2022-12-03T19:06:37.931Z,99345.98
2022-12-03T19:09:22.265Z,99350.86
2022-12-03T19:12:07.587Z,99347.99
2022-12-03T19:14:53.568Z,99346.16
2022-12-03T19:17:34.931Z,99346.50
2022-12-03T19:20:24.962Z,99344.52
2022-12-03T19:23:04.055Z,99341.94
2022-12-03T19:25:53.019Z,99344.73
2022-12-03T19:28:37.585Z,99351.08
2022-12-03T19:31:33.694Z,99350.26
2022-12-03T19:34:09.060Z,99355.52
2022-12-03T19:36:58.073Z,99355.53
2022-12-03T19:39:33.481Z,99354.13
2022-12-03T19:42:16.213Z,99356.06
2022-12-03T19:44:51.154Z,99359.05
2022-12-03T19:47:31.932Z,99355.19
2022-12-03T19:50:22.606Z,99357.02
2022-12-03T19:53:08.380Z,99355.57
2022-12-03T19:55:52.672Z,99357.27
2022-12-03T19:58:39.692Z,99357.64
2022-12-03T20:01:26.432Z,99357.56
2022-12-03T20:04:09.967Z,99355.80
2022-12-03T20:06:57.940Z,99356.16
2022-12-03T20:09:33.400Z,99361.21
2022-12-03T20:12:21.177Z,99359.46
2022-12-03T20:15:09.220Z,99356.30
2022-12-03T20:17:58.038Z,99353.29
2022-12-03T20:20:39.224Z,99354.94
2022-12-03T20:23:20.901Z,99352.90
2022-12-03T20:26:03.352Z,99353.38
2022-12-03T20:28:47.072Z,99351.60
2022-12-03T20:31:32.305Z,99346.65
2022-12-03T20:34:13.885Z,99349.29
2022-12-03T20:36:56.037Z,99344.48
2022-12-03T20:39:37.089Z,99346.92
2022-12-03T20:42:18.502Z,99341.52
2022-12-03T20:45:01.550Z,99338.40
2022-12-03T20:47:43.670Z,99339.80
2022-12-03T20:50:29.585Z,99336.75
2022-12-03T20:53:26.911Z,99333.04
2022-12-03T20:56:25.033Z,99336.80
2022-12-03T20:59:18.039Z,99345.79
2022-12-03T21:02:00.064Z,99348.20
2022-12-03T21:04:55.909Z,99348.63
2022-12-03T21:07:51.616Z,99350.39
2022-12-03T21:10:48.565Z,99352.63
2022-12-03T21:13:37.092Z,99352.88
2022-12-03T21:16:39.294Z,99346.15
2022-12-03T21:19:24.336Z,99342.54
2022-12-03T21:22:12.111Z,99340.60
2022-12-03T21:24:53.974Z,99339.39
2022-12-03T21:27:35.529Z,99339.12
2022-12-03T21:30:20.494Z,99334.07
2022-12-03T21:33:11.910Z,99333.30
2022-12-03T21:35:49.888Z,99338.88
2022-12-03T21:38:41.322Z,99338.20
2022-12-03T21:41:18.319Z,99335.84
2022-12-03T21:44:08.795Z,99331.52
2022-12-03T21:47:12.280Z,99333.77
2022-12-03T21:49:50.907Z,99328.23
2022-12-03T21:52:25.953Z,99336.09
2022-12-03T21:55:14.903Z,99345.63
2022-12-03T21:57:50.417Z,99345.40
2022-12-03T22:00:39.092Z,99346.11
2022-12-03T22:03:20.894Z,99348.72
2022-12-03T22:06:08.887Z,99354.04
2022-12-03T22:08:44.575Z,99342.50
2022-12-03T22:11:35.901Z,99340.45
2022-12-03T22:14:10.561Z,99339.41
2022-12-03T22:16:58.885Z,99336.64
2022-12-03T22:19:54.083Z,99333.73
2022-12-03T22:22:42.028Z,99333.48
2022-12-03T22:25:23.872Z,99337.77
2022-12-03T22:28:18.873Z,99337.71
2022-12-03T22:31:08.940Z,99334.83
2022-12-03T22:33:50.280Z,99331.93
2022-12-03T22:36:37.963Z,99332.99
2022-12-03T22:39:14.005Z,99334.25
2022-12-03T22:42:02.898Z,99336.77
2022-12-03T22:44:44.071Z,99333.15
2022-12-03T22:47:24.875Z,99330.02
2022-12-03T22:50:12.884Z,99326.42
2022-12-03T22:52:53.880Z,99326.48
2022-12-03T22:55:41.892Z,99323.05
2022-12-03T22:58:16.357Z,99325.20
2022-12-03T23:01:05.883Z,99325.35
2022-12-03T23:03:46.949Z,99324.11
2022-12-03T23:06:29.015Z,99320.39
2022-12-03T23:09:11.085Z,99316.35
2022-12-03T23:11:52.016Z,99318.50
2022-12-03T23:14:32.884Z,99317.17
2022-12-03T23:17:28.876Z,99312.33
2022-12-03T23:20:16.861Z,99306.82
2022-12-03T23:22:58.871Z,99310.95
2022-12-03T23:25:54.675Z,99309.27
2022-12-03T23:28:45.870Z,99310.64
2022-12-03T23:31:30.066Z,99314.87
2022-12-03T23:34:17.918Z,99320.25
2022-12-03T23:36:59.875Z,99316.58
2022-12-03T23:39:47.852Z,99311.74
2022-12-03T23:42:28.889Z,99311.55
2022-12-03T23:45:17.870Z,99314.45
2022-12-03T23:47:59.872Z,99315.22
2022-12-03T23:50:47.886Z,99323.85
2022-12-03T23:53:24.180Z,99333.42
2022-12-03T23:56:16.865Z,99325.85
2022-12-03T23:58:52.045Z,99321.81
